sensor_id;sensor_type;location;lat;lon;timestamp;P1;durP1;ratioP1;P2;durP2;ratioP2
69030;SDS011;56083;48.774;8.942;2022-07-19T00:01:28;9.75;;;2.80;;
69030;SDS011;56083;48.774;8.942;2022-07-19T00:03:55;13.50;;;2.90;;
69030;SDS011;56083;48.774;8.942;2022-07-19T00:06:21;13.77;;;2.75;;
69030;SDS011;56083;48.774;8.942;2022-07-19T00:08:47;13.02;;;2.60;;
69030;SDS011;56083;48.774;8.942;2022-07-19T00:11:13;7.82;;;2.70;;
69030;SDS011;56083;48.774;8.942;2022-07-19T00:13:39;10.07;;;2.80;;
69030;SDS011;56083;48.774;8.942;2022-07-19T00:16:04;9.25;;;2.85;;
69030;SDS011;56083;48.774;8.942;2022-07-19T00:18:30;8.32;;;3.03;;
69030;SDS011;56083;48.774;8.942;2022-07-19T00:20:56;7.85;;;2.83;;
69030;SDS011;56083;48.774;8.942;2022-07-19T00:23:21;5.05;;;2.53;;
69030;SDS011;56083;48.774;8.942;2022-07-19T00:25:47;6.90;;;2.53;;
69030;SDS011;56083;48.774;8.942;2022-07-19T00:28:13;9.38;;;2.60;;
69030;SDS011;56083;48.774;8.942;2022-07-19T00:30:38;7.97;;;2.60;;
69030;SDS011;56083;48.774;8.942;2022-07-19T00:33:04;8.43;;;2.50;;
69030;SDS011;56083;48.774;8.942;2022-07-19T00:35:34;8.80;;;2.58;;
69030;SDS011;56083;48.774;8.942;2022-07-19T00:38:04;12.80;;;3.30;;
69030;SDS011;56083;48.774;8.942;2022-07-19T00:40:33;15.40;;;3.03;;
69030;SDS011;56083;48.774;8.942;2022-07-19T00:43:00;16.63;;;2.70;;
69030;SDS011;56083;48.774;8.942;2022-07-19T00:45:26;10.40;;;3.22;;
69030;SDS011;56083;48.774;8.942;2022-07-19T00:47:52;10.68;;;2.80;;
69030;SDS011;56083;48.774;8.942;2022-07-19T00:50:18;10.20;;;3.03;;
69030;SDS011;56083;48.774;8.942;2022-07-19T00:52:45;12.88;;;3.05;;
69030;SDS011;56083;48.774;8.942;2022-07-19T00:55:13;8.98;;;2.63;;
69030;SDS011;56083;48.774;8.942;2022-07-19T00:57:40;6.35;;;2.67;;
69030;SDS011;56083;48.774;8.942;2022-07-19T01:00:07;10.13;;;3.00;;
69030;SDS011;56083;48.774;8.942;2022-07-19T01:02:35;12.40;;;2.60;;
69030;SDS011;56083;48.774;8.942;2022-07-19T01:05:01;7.80;;;2.50;;
69030;SDS011;56083;48.774;8.942;2022-07-19T01:07:28;9.30;;;2.90;;
69030;SDS011;56083;48.774;8.942;2022-07-19T01:09:53;8.60;;;2.92;;
69030;SDS011;56083;48.774;8.942;2022-07-19T01:12:19;4.75;;;2.50;;
69030;SDS011;56083;48.774;8.942;2022-07-19T01:14:47;11.10;;;2.92;;
69030;SDS011;56083;48.774;8.942;2022-07-19T01:17:13;14.88;;;2.90;;
69030;SDS011;56083;48.774;8.942;2022-07-19T01:19:41;11.43;;;2.83;;
69030;SDS011;56083;48.774;8.942;2022-07-19T01:22:07;17.27;;;2.80;;
69030;SDS011;56083;48.774;8.942;2022-07-19T01:24:33;8.82;;;2.97;;
69030;SDS011;56083;48.774;8.942;2022-07-19T01:26:58;11.98;;;2.85;;
69030;SDS011;56083;48.774;8.942;2022-07-19T01:29:24;12.35;;;2.95;;
69030;SDS011;56083;48.774;8.942;2022-07-19T01:31:50;10.65;;;3.40;;
69030;SDS011;56083;48.774;8.942;2022-07-19T01:34:15;10.77;;;2.88;;
69030;SDS011;56083;48.774;8.942;2022-07-19T01:36:41;7.05;;;2.90;;
69030;SDS011;56083;48.774;8.942;2022-07-19T01:39:07;14.23;;;3.08;;
69030;SDS011;56083;48.774;8.942;2022-07-19T01:41:32;14.27;;;3.13;;
69030;SDS011;56083;48.774;8.942;2022-07-19T01:43:58;11.77;;;2.72;;
69030;SDS011;56083;48.774;8.942;2022-07-19T01:46:24;5.40;;;3.00;;
69030;SDS011;56083;48.774;8.942;2022-07-19T01:48:49;10.88;;;2.70;;
69030;SDS011;56083;48.774;8.942;2022-07-19T01:51:15;8.38;;;2.95;;
69030;SDS011;56083;48.774;8.942;2022-07-19T01:53:41;17.80;;;3.22;;
69030;SDS011;56083;48.774;8.942;2022-07-19T01:56:06;7.80;;;3.22;;
69030;SDS011;56083;48.774;8.942;2022-07-19T01:58:32;9.00;;;2.88;;
69030;SDS011;56083;48.774;8.942;2022-07-19T02:00:58;12.18;;;3.38;;
69030;SDS011;56083;48.774;8.942;2022-07-19T02:03:24;15.98;;;3.35;;
69030;SDS011;56083;48.774;8.942;2022-07-19T02:05:49;10.98;;;3.33;;
69030;SDS011;56083;48.774;8.942;2022-07-19T02:08:15;5.60;;;2.88;;
69030;SDS011;56083;48.774;8.942;2022-07-19T02:10:41;29.05;;;3.50;;
69030;SDS011;56083;48.774;8.942;2022-07-19T02:13:06;13.18;;;3.45;;
69030;SDS011;56083;48.774;8.942;2022-07-19T02:15:32;11.10;;;3.45;;
69030;SDS011;56083;48.774;8.942;2022-07-19T02:17:59;11.10;;;2.88;;
69030;SDS011;56083;48.774;8.942;2022-07-19T02:20:25;12.32;;;3.10;;
69030;SDS011;56083;48.774;8.942;2022-07-19T02:22:50;12.13;;;3.22;;
69030;SDS011;56083;48.774;8.942;2022-07-19T02:25:16;8.50;;;3.10;;
69030;SDS011;56083;48.774;8.942;2022-07-19T02:27:42;9.48;;;2.97;;
69030;SDS011;56083;48.774;8.942;2022-07-19T02:30:08;11.70;;;3.22;;
69030;SDS011;56083;48.774;8.942;2022-07-19T02:32:36;5.68;;;2.78;;
69030;SDS011;56083;48.774;8.942;2022-07-19T02:35:02;9.98;;;3.08;;
69030;SDS011;56083;48.774;8.942;2022-07-19T02:37:29;11.55;;;3.28;;
69030;SDS011;56083;48.774;8.942;2022-07-19T02:39:55;11.30;;;2.83;;
69030;SDS011;56083;48.774;8.942;2022-07-19T02:42:21;7.97;;;3.50;;
69030;SDS011;56083;48.774;8.942;2022-07-19T02:44:46;8.95;;;3.33;;
69030;SDS011;56083;48.774;8.942;2022-07-19T02:47:12;10.45;;;2.97;;
69030;SDS011;56083;48.774;8.942;2022-07-19T02:49:38;14.95;;;3.47;;
69030;SDS011;56083;48.774;8.942;2022-07-19T02:52:03;14.15;;;3.50;;
69030;SDS011;56083;48.774;8.942;2022-07-19T02:54:29;8.57;;;3.03;;
69030;SDS011;56083;48.774;8.942;2022-07-19T02:56:55;9.60;;;3.22;;
69030;SDS011;56083;48.774;8.942;2022-07-19T02:59:20;15.07;;;3.60;;
69030;SDS011;56083;48.774;8.942;2022-07-19T03:01:46;15.45;;;3.42;;
69030;SDS011;56083;48.774;8.942;2022-07-19T03:04:11;11.38;;;3.33;;
69030;SDS011;56083;48.774;8.942;2022-07-19T03:06:37;6.45;;;3.28;;
69030;SDS011;56083;48.774;8.942;2022-07-19T03:09:03;9.52;;;3.40;;
69030;SDS011;56083;48.774;8.942;2022-07-19T03:11:28;7.43;;;3.40;;
69030;SDS011;56083;48.774;8.942;2022-07-19T03:13:54;9.02;;;3.53;;
69030;SDS011;56083;48.774;8.942;2022-07-19T03:16:20;11.98;;;3.30;;
69030;SDS011;56083;48.774;8.942;2022-07-19T03:18:46;10.23;;;3.60;;
69030;SDS011;56083;48.774;8.942;2022-07-19T03:21:12;6.05;;;3.30;;
69030;SDS011;56083;48.774;8.942;2022-07-19T03:23:37;7.38;;;3.58;;
69030;SDS011;56083;48.774;8.942;2022-07-19T03:26:03;10.77;;;3.70;;
69030;SDS011;56083;48.774;8.942;2022-07-19T03:28:29;12.02;;;3.58;;
69030;SDS011;56083;48.774;8.942;2022-07-19T03:30:55;7.88;;;3.28;;
69030;SDS011;56083;48.774;8.942;2022-07-19T03:33:21;8.07;;;3.38;;
69030;SDS011;56083;48.774;8.942;2022-07-19T03:35:47;11.02;;;3.65;;
69030;SDS011;56083;48.774;8.942;2022-07-19T03:38:13;7.63;;;3.60;;
69030;SDS011;56083;48.774;8.942;2022-07-19T03:40:43;7.47;;;3.35;;
69030;SDS011;56083;48.774;8.942;2022-07-19T03:43:13;9.50;;;3.65;;
69030;SDS011;56083;48.774;8.942;2022-07-19T03:45:40;6.68;;;3.50;;
69030;SDS011;56083;48.774;8.942;2022-07-19T03:48:06;10.07;;;3.58;;
69030;SDS011;56083;48.774;8.942;2022-07-19T03:50:32;7.95;;;3.50;;
69030;SDS011;56083;48.774;8.942;2022-07-19T03:52:57;9.48;;;3.70;;
69030;SDS011;56083;48.774;8.942;2022-07-19T03:55:23;8.90;;;3.25;;
69030;SDS011;56083;48.774;8.942;2022-07-19T03:57:49;7.90;;;3.20;;
69030;SDS011;56083;48.774;8.942;2022-07-19T04:00:14;7.68;;;3.72;;
69030;SDS011;56083;48.774;8.942;2022-07-19T04:02:41;13.82;;;3.78;;
69030;SDS011;56083;48.774;8.942;2022-07-19T04:05:07;8.13;;;3.90;;
69030;SDS011;56083;48.774;8.942;2022-07-19T04:07:33;8.73;;;3.13;;
69030;SDS011;56083;48.774;8.942;2022-07-19T04:09:59;12.18;;;3.95;;
69030;SDS011;56083;48.774;8.942;2022-07-19T04:12:24;15.10;;;3.65;;
69030;SDS011;56083;48.774;8.942;2022-07-19T04:14:50;18.13;;;4.10;;
69030;SDS011;56083;48.774;8.942;2022-07-19T04:17:16;9.77;;;4.00;;
69030;SDS011;56083;48.774;8.942;2022-07-19T04:19:42;9.05;;;3.88;;
69030;SDS011;56083;48.774;8.942;2022-07-19T04:22:08;12.85;;;4.05;;
69030;SDS011;56083;48.774;8.942;2022-07-19T04:24:33;10.32;;;3.58;;
69030;SDS011;56083;48.774;8.942;2022-07-19T04:26:59;10.73;;;3.83;;
69030;SDS011;56083;48.774;8.942;2022-07-19T04:29:25;6.97;;;3.22;;
69030;SDS011;56083;48.774;8.942;2022-07-19T04:31:51;9.88;;;3.58;;
69030;SDS011;56083;48.774;8.942;2022-07-19T04:34:16;11.32;;;3.28;;
69030;SDS011;56083;48.774;8.942;2022-07-19T04:36:42;8.27;;;3.53;;
69030;SDS011;56083;48.774;8.942;2022-07-19T04:39:07;13.15;;;3.45;;
69030;SDS011;56083;48.774;8.942;2022-07-19T04:41:33;11.18;;;3.72;;
69030;SDS011;56083;48.774;8.942;2022-07-19T04:43:59;9.77;;;3.67;;
69030;SDS011;56083;48.774;8.942;2022-07-19T04:46:24;9.20;;;3.67;;
69030;SDS011;56083;48.774;8.942;2022-07-19T04:48:50;10.35;;;3.63;;
69030;SDS011;56083;48.774;8.942;2022-07-19T04:51:15;8.60;;;4.05;;
69030;SDS011;56083;48.774;8.942;2022-07-19T04:53:41;12.15;;;3.85;;
69030;SDS011;56083;48.774;8.942;2022-07-19T04:56:07;12.70;;;4.28;;
69030;SDS011;56083;48.774;8.942;2022-07-19T04:58:32;11.50;;;3.92;;
69030;SDS011;56083;48.774;8.942;2022-07-19T05:00:58;8.60;;;3.88;;
69030;SDS011;56083;48.774;8.942;2022-07-19T05:03:24;13.52;;;4.32;;
69030;SDS011;56083;48.774;8.942;2022-07-19T05:05:49;11.88;;;4.00;;
69030;SDS011;56083;48.774;8.942;2022-07-19T05:08:15;15.40;;;4.30;;
69030;SDS011;56083;48.774;8.942;2022-07-19T05:10:42;15.57;;;3.58;;
69030;SDS011;56083;48.774;8.942;2022-07-19T05:13:08;16.17;;;4.47;;
69030;SDS011;56083;48.774;8.942;2022-07-19T05:15:34;14.63;;;4.28;;
69030;SDS011;56083;48.774;8.942;2022-07-19T05:18:00;22.33;;;4.30;;
69030;SDS011;56083;48.774;8.942;2022-07-19T05:20:26;21.63;;;4.30;;
69030;SDS011;56083;48.774;8.942;2022-07-19T05:22:51;27.98;;;4.80;;
69030;SDS011;56083;48.774;8.942;2022-07-19T05:25:17;34.55;;;4.90;;
69030;SDS011;56083;48.774;8.942;2022-07-19T05:27:43;41.72;;;5.45;;
69030;SDS011;56083;48.774;8.942;2022-07-19T05:30:09;42.22;;;5.20;;
69030;SDS011;56083;48.774;8.942;2022-07-19T05:32:35;29.40;;;4.85;;
69030;SDS011;56083;48.774;8.942;2022-07-19T05:35:00;13.00;;;3.90;;
69030;SDS011;56083;48.774;8.942;2022-07-19T05:37:26;28.55;;;4.97;;
69030;SDS011;56083;48.774;8.942;2022-07-19T05:39:52;21.48;;;4.28;;
69030;SDS011;56083;48.774;8.942;2022-07-19T05:42:17;26.58;;;4.47;;
69030;SDS011;56083;48.774;8.942;2022-07-19T05:44:43;17.77;;;4.20;;
69030;SDS011;56083;48.774;8.942;2022-07-19T05:47:09;17.48;;;3.92;;
69030;SDS011;56083;48.774;8.942;2022-07-19T05:49:34;22.88;;;3.78;;
69030;SDS011;56083;48.774;8.942;2022-07-19T05:52:00;25.23;;;4.45;;
69030;SDS011;56083;48.774;8.942;2022-07-19T05:54:26;20.02;;;3.83;;
69030;SDS011;56083;48.774;8.942;2022-07-19T05:56:51;24.02;;;4.20;;
69030;SDS011;56083;48.774;8.942;2022-07-19T05:59:18;25.13;;;4.18;;
69030;SDS011;56083;48.774;8.942;2022-07-19T06:01:46;28.90;;;4.35;;
69030;SDS011;56083;48.774;8.942;2022-07-19T06:04:13;17.52;;;3.97;;
69030;SDS011;56083;48.774;8.942;2022-07-19T06:06:39;22.15;;;4.13;;
69030;SDS011;56083;48.774;8.942;2022-07-19T06:09:04;39.53;;;4.35;;
69030;SDS011;56083;48.774;8.942;2022-07-19T06:11:30;16.20;;;3.80;;
69030;SDS011;56083;48.774;8.942;2022-07-19T06:13:56;25.52;;;3.80;;
69030;SDS011;56083;48.774;8.942;2022-07-19T06:16:22;17.27;;;3.70;;
69030;SDS011;56083;48.774;8.942;2022-07-19T06:18:48;17.67;;;3.53;;
69030;SDS011;56083;48.774;8.942;2022-07-19T06:21:14;18.13;;;3.75;;
69030;SDS011;56083;48.774;8.942;2022-07-19T06:23:43;12.80;;;3.25;;
69030;SDS011;56083;48.774;8.942;2022-07-19T06:26:10;16.48;;;3.30;;
69030;SDS011;56083;48.774;8.942;2022-07-19T06:28:37;19.63;;;3.40;;
69030;SDS011;56083;48.774;8.942;2022-07-19T06:31:03;7.70;;;2.95;;
69030;SDS011;56083;48.774;8.942;2022-07-19T06:33:29;8.93;;;2.97;;
69030;SDS011;56083;48.774;8.942;2022-07-19T06:35:55;8.88;;;3.20;;
69030;SDS011;56083;48.774;8.942;2022-07-19T06:38:20;10.48;;;3.20;;
69030;SDS011;56083;48.774;8.942;2022-07-19T06:40:46;12.73;;;3.03;;
69030;SDS011;56083;48.774;8.942;2022-07-19T06:43:12;11.60;;;3.17;;
69030;SDS011;56083;48.774;8.942;2022-07-19T06:45:38;6.43;;;2.78;;
69030;SDS011;56083;48.774;8.942;2022-07-19T06:48:04;7.72;;;2.95;;
69030;SDS011;56083;48.774;8.942;2022-07-19T06:50:30;7.75;;;2.92;;
69030;SDS011;56083;48.774;8.942;2022-07-19T06:52:56;14.10;;;2.90;;
69030;SDS011;56083;48.774;8.942;2022-07-19T06:55:22;11.43;;;3.08;;
69030;SDS011;56083;48.774;8.942;2022-07-19T06:57:48;8.50;;;2.65;;
69030;SDS011;56083;48.774;8.942;2022-07-19T07:00:13;9.05;;;2.85;;
69030;SDS011;56083;48.774;8.942;2022-07-19T07:02:39;12.18;;;2.72;;
69030;SDS011;56083;48.774;8.942;2022-07-19T07:05:06;8.70;;;2.13;;
69030;SDS011;56083;48.774;8.942;2022-07-19T07:07:34;13.90;;;2.95;;
69030;SDS011;56083;48.774;8.942;2022-07-19T07:09:59;7.47;;;2.75;;
69030;SDS011;56083;48.774;8.942;2022-07-19T07:12:27;8.95;;;2.55;;
69030;SDS011;56083;48.774;8.942;2022-07-19T07:14:55;5.57;;;2.28;;
69030;SDS011;56083;48.774;8.942;2022-07-19T07:17:21;5.35;;;2.20;;
69030;SDS011;56083;48.774;8.942;2022-07-19T07:19:47;5.63;;;2.30;;
69030;SDS011;56083;48.774;8.942;2022-07-19T07:22:13;6.57;;;2.10;;
69030;SDS011;56083;48.774;8.942;2022-07-19T07:24:38;10.00;;;2.28;;
69030;SDS011;56083;48.774;8.942;2022-07-19T07:27:04;11.10;;;2.20;;
69030;SDS011;56083;48.774;8.942;2022-07-19T07:29:30;8.48;;;2.10;;
69030;SDS011;56083;48.774;8.942;2022-07-19T07:31:56;8.15;;;1.95;;
69030;SDS011;56083;48.774;8.942;2022-07-19T07:34:22;6.85;;;1.90;;
69030;SDS011;56083;48.774;8.942;2022-07-19T07:36:47;8.25;;;2.13;;
69030;SDS011;56083;48.774;8.942;2022-07-19T07:39:13;8.20;;;1.60;;
69030;SDS011;56083;48.774;8.942;2022-07-19T07:41:39;6.20;;;1.70;;
69030;SDS011;56083;48.774;8.942;2022-07-19T07:44:05;5.43;;;1.65;;
69030;SDS011;56083;48.774;8.942;2022-07-19T07:46:31;10.30;;;1.70;;
69030;SDS011;56083;48.774;8.942;2022-07-19T07:48:57;3.05;;;1.30;;
69030;SDS011;56083;48.774;8.942;2022-07-19T07:51:23;4.05;;;1.50;;
69030;SDS011;56083;48.774;8.942;2022-07-19T07:53:48;5.30;;;1.60;;
69030;SDS011;56083;48.774;8.942;2022-07-19T07:56:14;6.50;;;1.40;;
69030;SDS011;56083;48.774;8.942;2022-07-19T07:58:40;6.35;;;1.55;;
69030;SDS011;56083;48.774;8.942;2022-07-19T08:01:05;9.43;;;1.60;;
69030;SDS011;56083;48.774;8.942;2022-07-19T08:03:31;11.35;;;1.70;;
69030;SDS011;56083;48.774;8.942;2022-07-19T08:05:57;2.92;;;1.40;;
69030;SDS011;56083;48.774;8.942;2022-07-19T08:08:24;6.07;;;1.50;;
69030;SDS011;56083;48.774;8.942;2022-07-19T08:10:55;3.13;;;1.30;;
69030;SDS011;56083;48.774;8.942;2022-07-19T08:13:21;12.45;;;1.70;;
69030;SDS011;56083;48.774;8.942;2022-07-19T08:15:48;9.93;;;1.55;;
69030;SDS011;56083;48.774;8.942;2022-07-19T08:18:15;4.68;;;1.55;;
69030;SDS011;56083;48.774;8.942;2022-07-19T08:20:41;6.13;;;1.58;;
69030;SDS011;56083;48.774;8.942;2022-07-19T08:23:07;7.60;;;1.80;;
69030;SDS011;56083;48.774;8.942;2022-07-19T08:25:33;12.07;;;2.08;;
69030;SDS011;56083;48.774;8.942;2022-07-19T08:27:59;5.72;;;1.80;;
69030;SDS011;56083;48.774;8.942;2022-07-19T08:30:25;7.93;;;1.60;;
69030;SDS011;56083;48.774;8.942;2022-07-19T08:32:51;8.30;;;2.45;;
69030;SDS011;56083;48.774;8.942;2022-07-19T08:35:17;10.32;;;1.70;;
69030;SDS011;56083;48.774;8.942;2022-07-19T08:37:42;4.07;;;1.52;;
69030;SDS011;56083;48.774;8.942;2022-07-19T08:40:08;6.43;;;1.45;;
69030;SDS011;56083;48.774;8.942;2022-07-19T08:42:34;10.85;;;2.28;;
69030;SDS011;56083;48.774;8.942;2022-07-19T08:45:01;5.68;;;1.60;;
69030;SDS011;56083;48.774;8.942;2022-07-19T08:47:29;10.23;;;1.75;;
69030;SDS011;56083;48.774;8.942;2022-07-19T08:49:57;6.65;;;1.75;;
69030;SDS011;56083;48.774;8.942;2022-07-19T08:52:24;6.65;;;1.83;;
69030;SDS011;56083;48.774;8.942;2022-07-19T08:54:50;11.73;;;1.83;;
69030;SDS011;56083;48.774;8.942;2022-07-19T08:57:15;7.80;;;1.55;;
69030;SDS011;56083;48.774;8.942;2022-07-19T09:00:00;3.20;;;1.60;;
69030;SDS011;56083;48.774;8.942;2022-07-19T09:02:26;5.03;;;1.80;;
69030;SDS011;56083;48.774;8.942;2022-07-19T09:05:01;5.05;;;1.67;;
69030;SDS011;56083;48.774;8.942;2022-07-19T09:07:30;3.08;;;1.50;;
69030;SDS011;56083;48.774;8.942;2022-07-19T09:10:13;7.88;;;1.65;;
69030;SDS011;56083;48.774;8.942;2022-07-19T09:18:18;4.15;;;1.67;;
69030;SDS011;56083;48.774;8.942;2022-07-19T09:20:46;8.57;;;1.70;;
69030;SDS011;56083;48.774;8.942;2022-07-19T09:23:14;6.57;;;1.50;;
69030;SDS011;56083;48.774;8.942;2022-07-19T09:25:44;5.70;;;1.70;;
69030;SDS011;56083;48.774;8.942;2022-07-19T09:30:46;6.68;;;1.60;;
69030;SDS011;56083;48.774;8.942;2022-07-19T09:36:22;7.82;;;1.90;;
69030;SDS011;56083;48.774;8.942;2022-07-19T09:38:41;3.40;;;1.60;;
69030;SDS011;56083;48.774;8.942;2022-07-19T09:41:15;8.77;;;1.90;;
69030;SDS011;56083;48.774;8.942;2022-07-19T09:43:59;10.25;;;2.30;;
69030;SDS011;56083;48.774;8.942;2022-07-19T09:46:39;6.93;;;1.85;;
69030;SDS011;56083;48.774;8.942;2022-07-19T09:49:15;5.50;;;1.80;;
69030;SDS011;56083;48.774;8.942;2022-07-19T09:51:46;6.68;;;1.88;;
69030;SDS011;56083;48.774;8.942;2022-07-19T09:54:18;5.70;;;1.85;;
69030;SDS011;56083;48.774;8.942;2022-07-19T09:56:46;4.05;;;1.75;;
69030;SDS011;56083;48.774;8.942;2022-07-19T09:59:12;8.75;;;2.05;;
69030;SDS011;56083;48.774;8.942;2022-07-19T10:01:38;12.30;;;2.10;;
69030;SDS011;56083;48.774;8.942;2022-07-19T10:04:09;6.60;;;2.00;;
69030;SDS011;56083;48.774;8.942;2022-07-19T10:06:37;10.88;;;1.80;;
69030;SDS011;56083;48.774;8.942;2022-07-19T10:09:04;6.97;;;2.05;;
69030;SDS011;56083;48.774;8.942;2022-07-19T10:11:31;5.68;;;1.70;;
69030;SDS011;56083;48.774;8.942;2022-07-19T10:13:57;6.43;;;2.30;;
69030;SDS011;56083;48.774;8.942;2022-07-19T10:16:34;4.15;;;2.05;;
69030;SDS011;56083;48.774;8.942;2022-07-19T10:19:08;11.77;;;2.00;;
69030;SDS011;56083;48.774;8.942;2022-07-19T10:21:40;7.13;;;1.90;;
69030;SDS011;56083;48.774;8.942;2022-07-19T10:24:07;6.25;;;1.90;;
69030;SDS011;56083;48.774;8.942;2022-07-19T10:26:36;7.18;;;2.08;;
69030;SDS011;56083;48.774;8.942;2022-07-19T10:29:16;3.08;;;1.80;;
69030;SDS011;56083;48.774;8.942;2022-07-19T10:31:43;3.70;;;1.88;;
69030;SDS011;56083;48.774;8.942;2022-07-19T10:34:27;7.40;;;1.90;;
69030;SDS011;56083;48.774;8.942;2022-07-19T10:36:53;4.65;;;2.05;;
69030;SDS011;56083;48.774;8.942;2022-07-19T10:47:20;6.40;;;1.98;;
69030;SDS011;56083;48.774;8.942;2022-07-19T10:49:47;8.57;;;2.13;;
69030;SDS011;56083;48.774;8.942;2022-07-19T10:57:42;4.70;;;2.38;;
69030;SDS011;56083;48.774;8.942;2022-07-19T11:02:42;10.02;;;2.35;;
69030;SDS011;56083;48.774;8.942;2022-07-19T11:05:08;7.30;;;2.13;;
69030;SDS011;56083;48.774;8.942;2022-07-19T11:07:48;3.58;;;1.92;;
69030;SDS011;56083;48.774;8.942;2022-07-19T11:10:22;10.77;;;2.25;;
69030;SDS011;56083;48.774;8.942;2022-07-19T11:12:49;4.30;;;2.00;;
69030;SDS011;56083;48.774;8.942;2022-07-19T11:15:14;6.07;;;2.13;;
69030;SDS011;56083;48.774;8.942;2022-07-19T11:17:55;7.03;;;2.20;;
69030;SDS011;56083;48.774;8.942;2022-07-19T11:20:26;7.10;;;2.15;;
69030;SDS011;56083;48.774;8.942;2022-07-19T11:22:53;5.25;;;2.30;;
69030;SDS011;56083;48.774;8.942;2022-07-19T11:27:54;11.10;;;2.50;;
69030;SDS011;56083;48.774;8.942;2022-07-19T11:30:20;9.75;;;2.58;;
69030;SDS011;56083;48.774;8.942;2022-07-19T11:32:51;5.22;;;2.40;;
69030;SDS011;56083;48.774;8.942;2022-07-19T11:35:19;6.57;;;2.25;;
69030;SDS011;56083;48.774;8.942;2022-07-19T11:37:45;7.43;;;2.20;;
69030;SDS011;56083;48.774;8.942;2022-07-19T11:40:11;10.85;;;2.60;;
69030;SDS011;56083;48.774;8.942;2022-07-19T11:42:39;9.85;;;2.33;;
69030;SDS011;56083;48.774;8.942;2022-07-19T11:45:12;6.18;;;2.13;;
69030;SDS011;56083;48.774;8.942;2022-07-19T11:47:47;9.43;;;2.47;;
69030;SDS011;56083;48.774;8.942;2022-07-19T11:50:15;7.93;;;2.38;;
69030;SDS011;56083;48.774;8.942;2022-07-19T11:55:20;4.68;;;2.10;;
69030;SDS011;56083;48.774;8.942;2022-07-19T11:57:48;6.55;;;2.20;;
69030;SDS011;56083;48.774;8.942;2022-07-19T12:00:15;7.45;;;2.17;;
69030;SDS011;56083;48.774;8.942;2022-07-19T12:02:52;9.25;;;2.60;;
69030;SDS011;56083;48.774;8.942;2022-07-19T12:05:37;7.40;;;2.50;;
69030;SDS011;56083;48.774;8.942;2022-07-19T12:08:04;7.03;;;2.50;;
69030;SDS011;56083;48.774;8.942;2022-07-19T12:10:32;7.75;;;2.33;;
69030;SDS011;56083;48.774;8.942;2022-07-19T12:12:59;6.65;;;2.30;;
69030;SDS011;56083;48.774;8.942;2022-07-19T12:15:26;4.28;;;2.47;;
69030;SDS011;56083;48.774;8.942;2022-07-19T12:17:55;8.27;;;2.45;;
69030;SDS011;56083;48.774;8.942;2022-07-19T12:22:49;8.70;;;2.53;;
69030;SDS011;56083;48.774;8.942;2022-07-19T12:25:34;7.15;;;2.75;;
69030;SDS011;56083;48.774;8.942;2022-07-19T12:28:01;6.97;;;2.60;;
69030;SDS011;56083;48.774;8.942;2022-07-19T12:30:27;5.57;;;2.50;;
69030;SDS011;56083;48.774;8.942;2022-07-19T12:32:55;5.65;;;2.45;;
69030;SDS011;56083;48.774;8.942;2022-07-19T12:35:44;9.65;;;2.58;;
69030;SDS011;56083;48.774;8.942;2022-07-19T12:38:11;10.98;;;2.50;;
69030;SDS011;56083;48.774;8.942;2022-07-19T12:40:38;13.10;;;2.72;;
69030;SDS011;56083;48.774;8.942;2022-07-19T12:43:05;8.73;;;2.85;;
69030;SDS011;56083;48.774;8.942;2022-07-19T12:45:36;10.18;;;2.90;;
69030;SDS011;56083;48.774;8.942;2022-07-19T12:48:09;5.25;;;2.40;;
69030;SDS011;56083;48.774;8.942;2022-07-19T12:50:43;4.82;;;2.45;;
69030;SDS011;56083;48.774;8.942;2022-07-19T12:53:12;5.35;;;2.80;;
69030;SDS011;56083;48.774;8.942;2022-07-19T12:55:39;6.13;;;2.90;;
69030;SDS011;56083;48.774;8.942;2022-07-19T12:58:08;7.55;;;2.70;;
69030;SDS011;56083;48.774;8.942;2022-07-19T13:00:35;8.13;;;2.90;;
69030;SDS011;56083;48.774;8.942;2022-07-19T13:03:02;12.95;;;2.65;;
69030;SDS011;56083;48.774;8.942;2022-07-19T13:05:29;10.30;;;2.85;;
69030;SDS011;56083;48.774;8.942;2022-07-19T13:07:55;9.82;;;2.70;;
69030;SDS011;56083;48.774;8.942;2022-07-19T13:10:22;6.38;;;2.60;;
69030;SDS011;56083;48.774;8.942;2022-07-19T13:12:50;8.68;;;2.80;;
69030;SDS011;56083;48.774;8.942;2022-07-19T13:15:17;6.20;;;2.50;;
69030;SDS011;56083;48.774;8.942;2022-07-19T13:17:43;4.65;;;2.20;;
69030;SDS011;56083;48.774;8.942;2022-07-19T13:20:10;4.22;;;2.60;;
69030;SDS011;56083;48.774;8.942;2022-07-19T13:22:37;9.65;;;2.95;;
69030;SDS011;56083;48.774;8.942;2022-07-19T13:25:04;5.18;;;2.50;;
69030;SDS011;56083;48.774;8.942;2022-07-19T13:27:31;9.60;;;2.83;;
69030;SDS011;56083;48.774;8.942;2022-07-19T13:29:57;11.90;;;2.80;;
69030;SDS011;56083;48.774;8.942;2022-07-19T13:32:22;9.25;;;2.92;;
69030;SDS011;56083;48.774;8.942;2022-07-19T13:34:48;9.55;;;2.72;;
69030;SDS011;56083;48.774;8.942;2022-07-19T13:37:14;9.57;;;2.80;;
69030;SDS011;56083;48.774;8.942;2022-07-19T13:39:39;7.85;;;2.55;;
69030;SDS011;56083;48.774;8.942;2022-07-19T13:42:05;13.10;;;2.90;;
69030;SDS011;56083;48.774;8.942;2022-07-19T13:44:31;8.40;;;2.80;;
69030;SDS011;56083;48.774;8.942;2022-07-19T13:46:56;7.05;;;2.63;;
69030;SDS011;56083;48.774;8.942;2022-07-19T13:49:23;6.85;;;2.83;;
69030;SDS011;56083;48.774;8.942;2022-07-19T13:51:49;11.90;;;2.95;;
69030;SDS011;56083;48.774;8.942;2022-07-19T13:54:15;12.15;;;2.67;;
69030;SDS011;56083;48.774;8.942;2022-07-19T13:56:42;5.47;;;2.35;;
69030;SDS011;56083;48.774;8.942;2022-07-19T13:59:08;13.77;;;2.47;;
69030;SDS011;56083;48.774;8.942;2022-07-19T14:01:33;10.35;;;2.58;;
69030;SDS011;56083;48.774;8.942;2022-07-19T14:04:00;8.13;;;2.50;;
69030;SDS011;56083;48.774;8.942;2022-07-19T14:06:26;11.90;;;2.50;;
69030;SDS011;56083;48.774;8.942;2022-07-19T14:08:52;12.07;;;2.97;;
69030;SDS011;56083;48.774;8.942;2022-07-19T14:11:17;9.27;;;2.55;;
69030;SDS011;56083;48.774;8.942;2022-07-19T14:13:43;6.88;;;2.35;;
69030;SDS011;56083;48.774;8.942;2022-07-19T14:16:09;9.30;;;2.30;;
69030;SDS011;56083;48.774;8.942;2022-07-19T14:18:35;10.35;;;2.35;;
69030;SDS011;56083;48.774;8.942;2022-07-19T14:21:01;8.55;;;2.45;;
69030;SDS011;56083;48.774;8.942;2022-07-19T14:23:27;7.22;;;2.30;;
69030;SDS011;56083;48.774;8.942;2022-07-19T14:25:53;6.28;;;2.60;;
69030;SDS011;56083;48.774;8.942;2022-07-19T14:28:19;6.53;;;2.38;;
69030;SDS011;56083;48.774;8.942;2022-07-19T14:30:44;5.28;;;2.50;;
69030;SDS011;56083;48.774;8.942;2022-07-19T14:33:10;8.23;;;2.58;;
69030;SDS011;56083;48.774;8.942;2022-07-19T14:35:36;9.18;;;2.45;;
69030;SDS011;56083;48.774;8.942;2022-07-19T14:38:02;9.38;;;2.55;;
69030;SDS011;56083;48.774;8.942;2022-07-19T14:40:29;10.50;;;2.50;;
69030;SDS011;56083;48.774;8.942;2022-07-19T14:42:55;6.55;;;2.65;;
69030;SDS011;56083;48.774;8.942;2022-07-19T14:45:20;5.95;;;2.70;;
69030;SDS011;56083;48.774;8.942;2022-07-19T14:47:46;7.78;;;2.50;;
69030;SDS011;56083;48.774;8.942;2022-07-19T14:50:12;17.20;;;2.90;;
69030;SDS011;56083;48.774;8.942;2022-07-19T14:52:38;9.63;;;2.70;;
69030;SDS011;56083;48.774;8.942;2022-07-19T14:55:05;8.50;;;2.65;;
69030;SDS011;56083;48.774;8.942;2022-07-19T14:57:31;14.27;;;2.90;;
69030;SDS011;56083;48.774;8.942;2022-07-19T14:59:58;4.47;;;2.30;;
69030;SDS011;56083;48.774;8.942;2022-07-19T15:02:24;11.82;;;2.65;;
69030;SDS011;56083;48.774;8.942;2022-07-19T15:04:50;8.30;;;2.95;;
69030;SDS011;56083;48.774;8.942;2022-07-19T15:07:16;9.88;;;2.60;;
69030;SDS011;56083;48.774;8.942;2022-07-19T15:09:42;11.25;;;2.60;;
69030;SDS011;56083;48.774;8.942;2022-07-19T15:12:08;5.55;;;2.35;;
69030;SDS011;56083;48.774;8.942;2022-07-19T15:14:34;8.25;;;2.50;;
69030;SDS011;56083;48.774;8.942;2022-07-19T15:17:00;10.60;;;2.90;;